BKPRLQSA

Guest
Details From BKPR - Pristina Intl
To LQSA - Sarajevo
Flight Number -
Tags generated
Created
Modified
Stats Distance 140 nm / 260 km
Max Altitude 14,300 ft / 4,359 m
Waypoints 3
Social Downloads 0
Likes 0
Share VATSIM

Download

Looking for another format? Having issues loading an existing format? Contact us
Advertisement - Login to hide

Notes

Basic altitude profile: - Ascent Rate: 2500ft/min - Ascent Speed: 250kts - Cruise Altitude: 2500ft - Cruise Speed: 420kts - Descent Rate: 1500ft/min - Descent Speed: 250kts Options: - Use NATs: yes - Use PACOTS: yes - Use low airways: yes - Use high airways: yes

Route

BKPR BEDAK LQSA

ID Type Via Altitude Latitude Longitude Leg Dist Tot Dist Heading (true) Name
O BKPR APT - 0 ft / 0 m 42.57453˚ 21.03568˚ - 0 nm - Pristina Intl
BEDAK FIX - 14,300 ft / 4,359 m 43.23972˚ 19.63836˚ 73 nm 73 nm 303° / 303° -
O LQSA APT - 0 ft / 0 m 43.82460˚ 18.33150˚ 66 nm 140 nm 302° / 301° Sarajevo

Altitude Profile

Advertisement - Login to hide

BKPR

Details ICAO BKPR
Name Pristina Intl
Region Kosovo
Timezone Europe/Belgrade (UTC+1.0)
Stats Elevation 1,789 ft / 545 m (AMSL)
Location 42.574531° 21.035685°
Runways 1
Magnetic Variation 4.553° E

METAR

BKPR 181430Z 01007KT 9999 SCT040 SCT080 00/M05 Q1018 NOSIG RMK 17190095

Decode

TAF

TAF BKPR 180530Z 1806/1906 02008KT 9999 SCT025 BKN050 TEMPO 1806/1812 5000 -SN BR BKN010 BKN025 PROB40 TEMPO 1806/1808 1500 SN

Decode

Departure Runways

ID Width Length Bearing (true) Bearing (mag) Surface Threshold Offset Overrun Length
17 148 ft / 45 m 8,175 ft / 2,492 m 175.71° 171.16° Asphalt 0 ft / 0 m 98 ft / 30 m
35 148 ft / 45 m 8,175 ft / 2,492 m 355.71° 351.16° Asphalt 0 ft / 0 m 98 ft / 30 m

LQSA

Details ICAO LQSA (SJJ)
Name Sarajevo
Region Bosnia and Herzegovinia
Timezone Europe/Sarajevo (UTC+1.0)
Stats Elevation 1,708 ft / 521 m (AMSL)
Location 43.824597° 18.331500°
Runways 1
Magnetic Variation 4.223° E

METAR

LQSA 181430Z 29006KT 7000 -SN SCT020 BKN030 OVC050 00/M02 Q1020 RESN NOSIG

Decode

TAF

TAF AMD LQSA 180845Z 1808/1906 30006KT 6000 -SN FEW015 BKN040 TX00/1812Z TNM04/1904Z PROB30 TEMPO 1808/1812 2000 SN BKN015 PROB40 1900/1906 3000 BR

Decode

Destination Runways

ID Width Length Bearing (true) Bearing (mag) Surface Threshold Offset Overrun Length
12 150 ft / 46 m 8,519 ft / 2,597 m 117.41° 113.19° Asphalt 333 ft / 102 m 0 ft / 0 m
30 150 ft / 46 m 8,519 ft / 2,597 m 297.43° 293.21° Asphalt 666 ft / 203 m 0 ft / 0 m

Approach Navaids

Runway Type Ident Frequency Range Bearing (true) Bearing (mag) Slope Elevation
12 Localiser BHS 110.70 MHz 25 nm / 46 km 117.00° 112.78° - 1,709 ft / 521 m (AMSL)
12 Glidescope BHS 110.70 MHz 25 nm / 46 km 117.00° 112.78° 3.20° 1,705 ft / 520 m (AMSL)
12 DME BHS 110.70 MHz 25 nm / 46 km - - - 1,705 ft / 520 m (AMSL)